Time;durP1;ratioP1;P1;durP2;ratioP2;P2;SDS_P1;SDS_P2;PMS_P1;PMS_P2;Temp;Humidity;BMP_temperature;BMP_pressure;BME280_temperature;BME280_humidity;BME280_pressure;Samples;Min_cycle;Max_cycle;Signal;HPM_P1;HPM_P2
2023/05/05 00:02:07;;;;;;;;;1.00;1.00;;;;;21.56;73.96;101249.56;5083221;27;45376;-75
2023/05/05 00:04:32;;;;;;;;;1.00;1.00;;;;;21.38;74.66;101217.22;5101374;27;45318;-75
2023/05/05 00:06:57;;;;;;;;;1.00;1.00;;;;;21.53;74.62;101252.72;5101273;27;45390;-76
2023/05/05 00:09:23;;;;;;;;;1.00;1.00;;;;;21.52;75.27;101248.34;5082821;27;45920;-75
2023/05/05 00:11:48;;;;;;;;;2.00;2.00;;;;;21.49;75.29;101251.53;5101291;27;45404;-75
2023/05/05 00:14:13;;;;;;;;;2.00;2.00;;;;;21.35;75.62;101247.44;5101069;27;45513;-75
2023/05/05 00:16:39;;;;;;;;;1.67;1.67;;;;;21.35;75.40;101250.13;5101224;27;46251;-75
2023/05/05 00:19:04;;;;;;;;;2.00;2.00;;;;;21.29;76.17;101238.38;5101071;27;45731;-75
2023/05/05 00:21:29;;;;;;;;;3.33;3.00;;;;;21.33;76.29;101254.97;5101189;27;45520;-75
2023/05/05 00:23:55;;;;;;;;;2.00;2.00;;;;;21.23;77.27;101250.13;5101079;27;45476;-75
2023/05/05 00:26:20;;;;;;;;;2.00;2.00;;;;;21.21;77.06;101252.22;5100845;27;45350;-75
2023/05/05 00:28:47;;;;;;;;;2.00;2.00;;;;;20.97;76.89;101211.66;5100820;27;45299;-75
2023/05/05 00:31:15;;;;;;;;;2.33;2.33;;;;;20.91;77.25;101211.56;5082703;27;45263;-75
2023/05/05 00:33:40;;;;;;;;;4.67;1.67;;;;;21.06;78.09;101234.59;5100634;27;45360;-75
2023/05/05 00:36:06;;;;;;;;;1.00;1.00;;;;;20.82;78.74;101204.81;5100627;27;45196;-75
2023/05/05 00:38:31;;;;;;;;;2.00;2.00;;;;;20.78;79.26;101200.94;5096444;27;45718;-76
2023/05/05 00:40:57;;;;;;;;;1.00;1.00;;;;;20.76;79.39;101208.44;5080593;28;45360;-75
2023/05/05 00:43:22;;;;;;;;;0.00;0.00;;;;;20.86;79.33;101218.69;5061924;28;46550;-75
2023/05/05 00:45:58;;;;;;;;;3.67;3.67;;;;;20.90;79.21;101228.00;5061900;28;46028;-75
2023/05/05 00:48:24;;;;;;;;;3.67;3.00;;;;;20.90;79.51;101233.41;5061880;28;46133;-75
2023/05/05 00:50:50;;;;;;;;;2.00;2.00;;;;;20.77;79.67;101213.59;5062020;28;45265;-74
2023/05/05 00:53:15;;;;;;;;;2.00;2.00;;;;;20.71;79.95;101208.31;5061819;28;47104;-75
2023/05/05 00:55:41;;;;;;;;;1.00;1.00;;;;;20.66;79.60;101201.75;5079847;28;45407;-75
2023/05/05 00:58:06;;;;;;;;;2.67;2.00;;;;;20.66;80.17;101217.09;5080079;28;45287;-76
2023/05/05 01:00:32;;;;;;;;;2.00;2.00;;;;;20.63;80.45;101206.75;5080202;28;45229;-76
2023/05/05 01:02:58;;;;;;;;;2.00;2.00;;;;;20.58;79.94;101199.34;5079015;28;45452;-75
2023/05/05 01:05:26;;;;;;;;;2.00;2.00;;;;;20.44;79.60;101196.84;5078036;28;46035;-75
2023/05/05 01:07:52;;;;;;;;;2.00;2.00;;;;;20.60;80.60;101239.63;5078452;28;45298;-76
2023/05/05 01:10:44;;;;;;;;;2.33;2.00;;;;;20.55;81.12;101234.91;5079367;28;45429;-75
2023/05/05 01:13:38;;;;;;;;;1.33;1.00;;;;;20.49;81.21;101236.66;5061213;28;46509;-75
2023/05/05 01:16:13;;;;;;;;;2.00;2.00;;;;;20.41;81.48;101237.78;5079629;28;45444;-75
2023/05/05 01:18:53;;;;;;;;;2.00;1.00;;;;;20.40;81.40;101236.16;5078527;28;45332;-74
2023/05/05 01:21:30;;;;;;;;;1.33;1.00;;;;;20.33;82.61;101242.69;5078376;28;45423;-75
2023/05/05 01:24:05;;;;;;;;;2.00;2.00;;;;;20.26;83.57;101240.09;5079451;28;45358;-75
2023/05/05 01:26:33;;;;;;;;;5.00;4.00;;;;;20.29;83.17;101245.00;5078226;28;45519;-75
2023/05/05 01:29:10;;;;;;;;;2.00;2.00;;;;;20.30;83.68;101242.06;5078189;28;46319;-75
2023/05/05 01:31:38;;;;;;;;;2.00;2.00;;;;;20.28;83.53;101238.81;5061488;28;45391;-75
2023/05/05 01:34:07;;;;;;;;;2.00;2.00;;;;;20.11;83.97;101232.38;5061036;28;47521;-76
2023/05/05 01:36:41;;;;;;;;;3.00;2.33;;;;;20.07;84.52;101221.22;5079258;28;45248;-75
2023/05/05 01:39:09;;;;;;;;;4.00;3.00;;;;;20.18;84.30;101216.94;5088532;27;45388;-75
2023/05/05 01:41:40;;;;;;;;;2.00;2.00;;;;;20.12;84.45;101207.03;5099750;27;45291;-75
2023/05/05 01:44:08;;;;;;;;;2.00;2.00;;;;;20.20;84.11;101220.22;5099908;27;45431;-75
2023/05/05 01:46:35;;;;;;;;;3.67;3.67;;;;;20.17;84.10;101221.50;5099784;27;45302;-76
2023/05/05 01:49:01;;;;;;;;;2.67;2.00;;;;;20.10;84.46;101209.97;5081251;27;45411;-76
2023/05/05 01:51:28;;;;;;;;;2.00;2.00;;;;;20.19;84.89;101229.38;5099759;27;45328;-74
2023/05/05 01:53:58;;;;;;;;;3.67;3.67;;;;;20.15;84.82;101222.78;5099813;27;45455;-75
2023/05/05 01:56:24;;;;;;;;;4.67;4.67;;;;;20.00;85.33;101204.25;5099437;27;45577;-75
2023/05/05 01:58:51;;;;;;;;;4.33;4.00;;;;;20.05;85.97;101215.22;5099631;27;45482;-75
2023/05/05 02:01:20;;;;;;;;;8.67;4.33;;;;;20.05;86.62;101216.03;5081510;27;45386;-75
2023/05/05 02:03:48;;;;;;;;;4.33;3.67;;;;;20.03;86.58;101210.03;5099321;27;45475;-74
2023/05/05 02:06:15;;;;;;;;;4.00;3.00;;;;;20.06;86.70;101208.78;5099606;27;46629;-75
2023/05/05 02:08:42;;;;;;;;;3.00;2.33;;;;;20.06;87.11;101209.59;5099610;27;45382;-75
2023/05/05 02:11:09;;;;;;;;;2.00;2.00;;;;;20.11;86.81;101217.00;5081243;27;45465;-75
2023/05/05 02:13:36;;;;;;;;;4.33;4.00;;;;;20.07;87.32;101199.63;5080567;27;46590;-75
2023/05/05 02:16:03;;;;;;;;;2.00;1.67;;;;;20.04;86.82;101205.47;5080862;27;48276;-76
2023/05/05 02:18:32;;;;;;;;;4.00;4.00;;;;;20.00;87.20;101212.34;5102879;27;45222;-75
2023/05/05 02:20:57;;;;;;;;;4.67;4.67;;;;;19.96;87.34;101222.75;5102928;27;45454;-75
2023/05/05 02:23:23;;;;;;;;;3.00;3.00;;;;;20.01;87.25;101214.03;5102920;27;46284;-75
2023/05/05 02:25:52;;;;;;;;;3.00;2.00;;;;;19.98;87.24;101215.28;5102703;27;45416;-75
2023/05/05 02:28:27;;;;;;;;;2.00;2.00;;;;;19.98;87.21;101215.28;5084259;27;45308;-75
2023/05/05 02:30:58;;;;;;;;;3.00;3.00;;;;;20.01;86.49;101214.03;5084284;27;45263;-76
2023/05/05 02:33:27;;;;;;;;;2.33;2.00;;;;;20.07;86.57;101221.22;5102510;27;45595;-75
2023/05/05 02:35:54;;;;;;;;;1.00;1.00;;;;;20.06;86.18;101224.97;5083951;27;47920;-75
2023/05/05 02:38:26;;;;;;;;;4.00;3.00;;;;;20.10;86.32;101219.94;5100050;27;45620;-75
2023/05/05 02:40:55;;;;;;;;;3.00;2.33;;;;;20.02;86.37;101229.97;5082283;28;45233;-75
2023/05/05 02:43:24;;;;;;;;;3.00;3.00;;;;;20.05;86.29;101250.28;5081958;28;45258;-75
2023/05/05 02:45:49;;;;;;;;;4.00;2.00;;;;;19.95;86.42;101240.00;5082098;28;45508;-75
2023/05/05 02:48:14;;;;;;;;;4.00;3.00;;;;;19.91;86.26;101233.41;5063768;28;45995;-75
2023/05/05 02:50:40;;;;;;;;;1.00;1.00;;;;;19.90;87.27;101246.06;5063704;28;45374;-75
2023/05/05 02:53:05;;;;;;;;;4.00;3.00;;;;;19.81;87.64;101240.16;5081705;28;45250;-75
2023/05/05 02:55:49;;;;;;;;;3.33;3.33;;;;;19.86;87.41;101249.44;5081140;28;45339;-75
2023/05/05 02:58:23;;;;;;;;;2.00;2.00;;;;;19.89;87.37;101254.38;5081467;28;45461;-75
2023/05/05 03:01:20;;;;;;;;;2.00;2.00;;;;;19.83;87.95;101239.09;5082079;28;45287;-75
2023/05/05 03:03:54;;;;;;;;;2.00;2.00;;;;;19.78;87.06;101240.59;5081841;28;45413;-75
2023/05/05 03:06:23;;;;;;;;;3.00;3.00;;;;;19.66;87.44;101224.34;5063332;28;47308;-75
2023/05/05 03:09:14;;;;;;;;;2.67;2.00;;;;;19.82;87.38;101249.06;5081692;28;45287;-75
2023/05/05 03:11:44;;;;;;;;;3.00;3.00;;;;;19.75;88.39;101237.53;5081733;28;45260;-75
2023/05/05 03:14:17;;;;;;;;;5.00;3.33;;;;;19.75;88.32;101237.53;5081735;28;45265;-75
2023/05/05 03:16:43;;;;;;;;;2.00;2.00;;;;;19.66;88.54;101227.03;5081611;28;46156;-75
2023/05/05 03:19:11;;;;;;;;;2.00;2.00;;;;;19.61;88.81;101221.50;5081463;28;45273;-76
2023/05/05 03:21:37;;;;;;;;;5.00;4.00;;;;;19.64;88.92;101225.63;5081601;28;45312;-74
2023/05/05 03:24:14;;;;;;;;;2.00;2.00;;;;;19.67;89.19;101225.16;5081520;28;45423;-76
2023/05/05 03:26:40;;;;;;;;;3.67;2.33;;;;;19.55;89.27;101212.41;5081019;28;45418;-74
2023/05/05 03:29:06;;;;;;;;;2.00;2.00;;;;;19.58;89.45;101213.03;5080279;28;45265;-75
2023/05/05 03:31:31;;;;;;;;;1.00;1.00;;;;;19.58;90.01;101211.16;5063005;28;45307;-76
2023/05/05 03:33:57;;;;;;;;;1.33;1.33;;;;;19.49;89.94;101205.25;5062819;28;45987;-75
2023/05/05 03:36:22;;;;;;;;;2.00;2.00;;;;;19.27;89.87;101189.47;5062723;28;47648;-75
2023/05/05 03:38:48;;;;;;;;;4.00;3.00;;;;;19.47;90.08;101223.50;5087590;27;45178;-76
2023/05/05 03:41:13;;;;;;;;;2.67;1.67;;;;;19.45;90.56;101222.88;5083361;27;45479;-75
2023/05/05 03:43:38;;;;;;;;;2.67;2.67;;;;;19.42;90.42;101231.41;5101644;27;45468;-75
2023/05/05 03:46:04;;;;;;;;;3.00;3.00;;;;;19.45;91.24;101247.13;5082974;27;52836;-75
2023/05/05 03:48:30;;;;;;;;;5.00;3.33;;;;;19.41;90.54;101229.75;5101791;27;45366;-75
2023/05/05 03:50:55;;;;;;;;;2.00;2.00;;;;;19.50;90.90;101239.22;5101640;27;45251;-75
2023/05/05 03:53:21;;;;;;;;;3.00;2.00;;;;;19.46;91.00;101242.59;5101432;27;45234;-75
2023/05/05 03:55:46;;;;;;;;;1.67;1.67;;;;;19.48;90.92;101246.69;5083082;27;48343;-75
2023/05/05 03:58:12;;;;;;;;;5.67;4.00;;;;;19.30;91.17;101225.91;5101297;27;45473;-75
2023/05/05 04:00:37;;;;;;;;;3.00;2.00;;;;;19.34;91.37;101237.09;5100165;27;45397;-75
2023/05/05 04:03:02;;;;;;;;;3.00;3.00;;;;;19.45;91.54;101255.22;5101352;27;45390;-76
2023/05/05 04:05:28;;;;;;;;;4.00;3.00;;;;;19.26;91.56;101233.63;5082710;27;47027;-75
2023/05/05 04:07:53;;;;;;;;;2.67;2.67;;;;;19.10;91.36;101218.03;5082675;27;52883;-76
2023/05/05 04:10:18;;;;;;;;;3.00;3.00;;;;;19.39;91.77;101270.41;5100210;27;45385;-75
2023/05/05 04:12:43;;;;;;;;;3.33;3.33;;;;;19.32;91.43;101252.66;5082546;27;45927;-75
2023/05/05 04:15:09;;;;;;;;;3.00;3.00;;;;;19.29;91.20;101262.84;5101077;27;46182;-75
2023/05/05 04:17:34;;;;;;;;;3.33;2.33;;;;;19.37;91.42;101280.59;5101198;27;45414;-75
2023/05/05 04:20:00;;;;;;;;;6.00;5.67;;;;;19.38;91.72;101290.34;5099662;27;45291;-76
2023/05/05 04:22:25;;;;;;;;;7.00;6.00;;;;;19.29;91.72;101272.78;5100834;27;45427;-75
2023/05/05 04:24:51;;;;;;;;;5.00;5.00;;;;;19.18;91.73;101253.59;5100944;27;45362;-76
2023/05/05 04:27:16;;;;;;;;;3.00;3.00;;;;;19.41;92.05;101284.50;5082416;27;45629;-76
2023/05/05 04:29:41;;;;;;;;;3.00;3.00;;;;;19.38;91.91;101284.09;5082066;27;45273;-75
2023/05/05 04:32:07;;;;;;;;;5.00;5.00;;;;;19.38;91.53;101273.31;5082472;27;46148;-75
2023/05/05 04:34:32;;;;;;;;;3.00;3.00;;;;;19.35;91.34;101271.06;5080829;27;52630;-76
2023/05/05 04:36:57;;;;;;;;;5.33;5.33;;;;;19.49;91.70;101291.50;5082466;27;45240;-75
2023/05/05 04:39:23;;;;;;;;;3.67;2.33;;;;;19.51;91.53;101291.25;5081949;27;45222;-75
2023/05/05 04:41:48;;;;;;;;;4.00;4.00;;;;;19.52;91.84;101292.91;5100655;27;45172;-75
2023/05/05 04:44:13;;;;;;;;;3.67;3.67;;;;;19.53;92.32;101289.16;5082369;27;48203;-75
2023/05/05 04:46:39;;;;;;;;;5.33;5.00;;;;;19.53;92.10;101291.84;5082264;27;46017;-75
2023/05/05 04:49:04;;;;;;;;;6.00;6.00;;;;;19.55;92.02;101295.97;5100735;27;45450;-75
2023/05/05 04:51:31;;;;;;;;;3.00;3.00;;;;;19.63;92.49;101307.56;5082193;27;46161;-76
2023/05/05 04:53:56;;;;;;;;;4.00;4.00;;;;;19.64;92.14;101306.50;5100375;27;45512;-75
2023/05/05 04:56:22;;;;;;;;;3.33;3.00;;;;;19.69;92.25;101312.03;5081786;27;45289;-76
2023/05/05 04:58:48;;;;;;;;;4.00;4.00;;;;;19.68;93.08;101308.53;5100402;27;45484;-76
2023/05/05 05:01:14;;;;;;;;;5.33;4.33;;;;;19.65;92.25;101300.03;5099776;27;45436;-74
2023/05/05 05:03:40;;;;;;;;;5.00;3.00;;;;;19.80;93.72;101321.28;5100248;27;45924;-75
2023/05/05 05:06:05;;;;;;;;;3.00;3.00;;;;;19.81;93.49;101315.66;5081399;27;45855;-75
2023/05/05 05:08:30;;;;;;;;;3.33;3.33;;;;;19.75;93.17;101304.94;5100619;27;45302;-75
2023/05/05 05:10:56;;;;;;;;;3.33;3.33;;;;;19.83;94.07;101320.00;5081567;27;50142;-75
2023/05/05 05:13:21;;;;;;;;;4.00;3.00;;;;;19.80;94.33;101324.81;5099252;27;46499;-75
2023/05/05 05:15:46;;;;;;;;;5.67;4.00;;;;;19.73;95.73;101323.22;5098611;27;45330;-75
2023/05/05 05:18:12;;;;;;;;;4.00;4.00;;;;;19.73;95.85;101315.97;5099311;27;45413;-77
2023/05/05 05:20:37;;;;;;;;;3.33;3.33;;;;;19.78;96.52;101313.41;5081325;27;50958;-77
2023/05/05 05:23:03;;;;;;;;;5.00;4.00;;;;;19.77;97.27;101319.00;5099783;27;55986;-76
2023/05/05 05:25:28;;;;;;;;;5.00;4.00;;;;;19.83;97.31;101328.91;5100270;27;45308;-76
2023/05/05 05:27:54;;;;;;;;;3.00;2.67;;;;;19.87;98.09;101330.13;5081684;27;45295;-76
2023/05/05 05:30:19;;;;;;;;;4.67;3.67;;;;;19.86;97.67;101331.19;5081567;27;46329;-75
2023/05/05 05:32:44;;;;;;;;;3.00;3.00;;;;;19.85;98.30;101326.00;5100004;27;45625;-75
2023/05/05 05:35:10;;;;;;;;;5.33;4.67;;;;;19.86;98.76;101333.88;5079921;27;60335;-75
2023/05/05 05:37:35;;;;;;;;;4.67;3.00;;;;;19.82;99.29;101321.88;5101615;27;46403;-76
2023/05/05 05:40:01;;;;;;;;;5.00;4.33;;;;;19.85;99.68;101324.13;5095753;27;45729;-76
2023/05/05 05:42:26;;;;;;;;;4.33;3.00;;;;;19.88;99.59;101337.19;5081701;27;47431;-75
2023/05/05 05:44:51;;;;;;;;;3.33;3.33;;;;;19.94;99.64;101341.66;5086119;27;45308;-74
2023/05/05 05:47:17;;;;;;;;;6.67;5.00;;;;;19.99;99.42;101338.28;5076507;27;45732;-76
2023/05/05 05:49:42;;;;;;;;;3.00;3.00;;;;;20.00;99.60;101336.44;5075462;27;45844;-75
2023/05/05 05:52:07;;;;;;;;;3.00;3.00;;;;;20.01;99.54;101330.00;5097130;27;45787;-76
2023/05/05 05:54:34;;;;;;;;;3.67;3.67;;;;;19.98;99.16;101327.72;5099537;27;52405;-74
2023/05/05 05:57:02;;;;;;;;;5.00;5.00;;;;;19.98;99.51;101331.25;5099667;27;45511;-75
2023/05/05 05:59:28;;;;;;;;;4.00;4.00;;;;;19.96;99.79;101321.75;5098396;27;46638;-75
2023/05/05 06:01:54;;;;;;;;;4.67;4.67;;;;;20.08;99.83;101343.44;5099903;27;45391;-75
2023/05/05 06:04:19;;;;;;;;;4.33;4.33;;;;;20.09;99.92;101348.63;5080917;27;45354;-75
2023/05/05 06:06:45;;;;;;;;;6.67;5.67;;;;;20.01;99.99;101349.72;5099424;27;45347;-76
2023/05/05 06:09:10;;;;;;;;;3.33;3.33;;;;;20.05;100.00;101350.09;5098948;27;50461;-76
2023/05/05 06:11:35;;;;;;;;;5.00;5.00;;;;;20.06;99.79;101357.97;5099267;27;46428;-75
2023/05/05 06:14:01;;;;;;;;;3.00;3.00;;;;;19.95;99.92;101342.50;5099092;27;45525;-76
2023/05/05 06:16:26;;;;;;;;;5.00;5.00;;;;;19.94;99.69;101347.06;5100084;27;45152;-75
2023/05/05 06:18:52;;;;;;;;;4.67;4.67;;;;;20.00;100.00;101361.56;5085777;27;47238;-75
2023/05/05 06:21:19;;;;;;;;;6.67;5.67;;;;;20.01;100.00;101363.22;5100059;27;46469;-75
2023/05/05 06:23:45;;;;;;;;;5.67;5.33;;;;;20.10;100.00;101384.50;5081379;27;45367;-75
2023/05/05 06:26:10;;;;;;;;;5.00;5.00;;;;;20.08;100.00;101382.03;5088010;27;45944;-75
2023/05/05 06:28:36;;;;;;;;;5.00;5.00;;;;;20.09;100.00;101382.88;5099992;27;45564;-75
2023/05/05 06:31:01;;;;;;;;;5.33;5.33;;;;;20.06;100.00;101387.66;5100175;27;46928;-75
2023/05/05 06:33:26;;;;;;;;;6.67;6.67;;;;;20.02;100.00;101381.06;5100200;27;45461;-75
2023/05/05 06:35:53;;;;;;;;;6.33;5.00;;;;;20.09;100.00;101394.50;5100435;27;45682;-75
2023/05/05 06:38:18;;;;;;;;;6.00;6.00;;;;;20.11;100.00;101399.66;5098834;27;45577;-74
2023/05/05 06:40:46;;;;;;;;;4.00;4.00;;;;;20.01;100.00;101384.81;5097740;27;46447;-74
2023/05/05 06:43:11;;;;;;;;;3.33;3.33;;;;;20.05;100.00;101388.69;5098640;27;45853;-75
2023/05/05 06:45:37;;;;;;;;;3.67;3.67;;;;;20.04;100.00;101389.75;5099068;27;45353;-75
2023/05/05 06:48:02;;;;;;;;;4.00;3.00;;;;;20.08;100.00;101390.13;5098500;27;54236;-75
2023/05/05 06:50:27;;;;;;;;;5.33;5.33;;;;;20.09;100.00;101375.59;5099022;27;46258;-74
2023/05/05 06:52:53;;;;;;;;;5.00;5.00;;;;;20.11;100.00;101389.69;5097845;27;45516;-74
2023/05/05 06:55:18;;;;;;;;;5.33;5.33;;;;;20.08;100.00;101382.03;5098410;27;45420;-75
2023/05/05 06:57:44;;;;;;;;;4.00;4.00;;;;;20.09;100.00;101381.00;5098627;27;45480;-74
2023/05/05 07:00:10;;;;;;;;;5.00;5.00;;;;;20.12;100.00;101374.31;5098229;27;45463;-75
2023/05/05 07:02:37;;;;;;;;;3.33;3.33;;;;;20.16;100.00;101373.66;5098056;27;45600;-75
2023/05/05 07:05:02;;;;;;;;;5.33;4.67;;;;;20.25;100.00;101371.50;5096321;27;46533;-75
2023/05/05 07:07:27;;;;;;;;;5.00;5.00;;;;;20.19;100.00;101340.00;5098566;27;45350;-75
2023/05/05 07:09:53;;;;;;;;;5.00;4.00;;;;;20.30;100.00;101350.03;5087429;27;47035;-75
2023/05/05 07:12:18;;;;;;;;;5.67;5.67;;;;;20.28;100.00;101341.34;5097441;27;45477;-76
2023/05/05 07:14:45;;;;;;;;;4.33;4.33;;;;;20.29;100.00;101345.69;5098434;27;45558;-75
2023/05/05 07:17:10;;;;;;;;;5.00;5.00;;;;;20.30;100.00;101347.34;5097214;27;45510;-75
2023/05/05 07:19:36;;;;;;;;;3.67;3.67;;;;;20.25;100.00;101333.72;5097082;27;46094;-75
2023/05/05 07:22:01;;;;;;;;;4.33;4.00;;;;;20.20;100.00;101324.66;5098203;27;45425;-75
2023/05/05 07:24:26;;;;;;;;;3.00;3.00;;;;;20.22;100.00;101331.47;5095569;27;45450;-75
2023/05/05 07:26:52;;;;;;;;;5.00;3.67;;;;;20.27;100.00;101337.00;5098538;27;45382;-75
2023/05/05 07:29:17;;;;;;;;;6.00;2.33;;;;;20.35;100.00;101340.47;5097814;27;46283;-75
2023/05/05 07:31:42;;;;;;;;;4.33;3.67;;;;;20.24;100.00;101317.75;5091146;27;45440;-75
2023/05/05 07:34:08;;;;;;;;;2.00;2.00;;;;;20.44;100.00;101347.19;5080782;27;45478;-76
2023/05/05 07:36:33;;;;;;;;;2.67;2.67;;;;;20.44;100.00;101348.00;5081086;27;46299;-76
2023/05/05 07:38:59;;;;;;;;;1.00;1.00;;;;;20.51;100.00;101353.34;5084563;27;47102;-76
2023/05/05 07:41:24;;;;;;;;;6.00;3.00;;;;;20.58;100.00;101365.91;5092298;27;45435;-76
2023/05/05 07:43:50;;;;;;;;;2.67;2.00;;;;;20.57;100.00;101367.81;5094901;27;45293;-77
2023/05/05 07:46:16;;;;;;;;;3.67;2.00;;;;;20.53;100.00;101362.03;5097517;27;45609;-75
2023/05/05 07:48:41;;;;;;;;;4.00;2.00;;;;;20.55;100.00;101353.69;5084014;27;47991;-76
2023/05/05 07:51:07;;;;;;;;;4.00;3.00;;;;;20.59;100.00;101346.00;5097690;27;45395;-75
2023/05/05 07:53:32;;;;;;;;;3.00;3.00;;;;;20.75;100.00;101352.63;5096717;27;45385;-75
2023/05/05 07:55:58;;;;;;;;;3.00;3.00;;;;;20.72;100.00;101343.13;5097759;27;51289;-74
2023/05/05 07:58:23;;;;;;;;;2.67;2.33;;;;;20.65;100.00;101351.28;5098267;27;45446;-75
2023/05/05 08:00:49;;;;;;;;;4.00;3.00;;;;;20.65;100.00;101364.00;5084018;27;45804;-76
2023/05/05 08:03:15;;;;;;;;;1.00;1.00;;;;;20.61;100.00;101363.59;5097609;27;45460;-76
2023/05/05 08:05:40;;;;;;;;;6.33;6.00;;;;;20.53;100.00;101353.94;5097920;27;45878;-76
2023/05/05 08:08:06;;;;;;;;;4.00;4.00;;;;;20.56;100.00;101348.06;5097162;27;46046;-75
2023/05/05 08:10:31;;;;;;;;;3.00;3.00;;;;;20.58;100.00;101347.84;5091689;27;45817;-75
2023/05/05 08:12:57;;;;;;;;;1.33;1.33;;;;;20.61;100.00;101360.06;5092018;27;45421;-76
2023/05/05 08:15:22;;;;;;;;;2.00;2.00;;;;;20.62;100.00;101356.34;5097126;27;45408;-76
2023/05/05 08:17:49;;;;;;;;;1.00;1.00;;;;;20.62;100.00;101353.63;5087517;27;60552;-76
2023/05/05 08:20:16;;;;;;;;;2.00;2.00;;;;;20.80;100.00;101363.59;5083799;27;45487;-76
2023/05/05 08:22:42;;;;;;;;;2.00;1.00;;;;;20.87;100.00;101377.81;5097594;27;45473;-76
2023/05/05 08:25:09;;;;;;;;;2.00;2.00;;;;;20.90;100.00;101409.81;5096971;27;45437;-75
2023/05/05 08:27:36;;;;;;;;;1.67;1.67;;;;;20.88;100.00;101397.53;5084333;27;47225;-76
2023/05/05 08:30:01;;;;;;;;;2.00;2.00;;;;;20.94;100.00;101389.41;5097261;27;45422;-76
2023/05/05 08:32:27;;;;;;;;;2.00;2.00;;;;;20.97;100.00;101390.81;5097851;27;45374;-76
2023/05/05 08:34:52;;;;;;;;;2.67;2.67;;;;;21.13;100.00;101410.16;5083779;27;47124;-76
2023/05/05 08:37:17;;;;;;;;;3.67;3.00;;;;;21.17;100.00;101392.41;5090177;27;54731;-76
2023/05/05 08:39:43;;;;;;;;;2.00;2.00;;;;;21.26;100.00;101401.00;5107280;27;45543;-77
2023/05/05 08:42:08;;;;;;;;;3.00;2.00;;;;;21.28;100.00;101388.91;5108503;27;45414;-77
2023/05/05 08:44:34;;;;;;;;;1.00;1.00;;;;;21.41;100.00;101404.13;5113266;27;45432;-76
2023/05/05 08:47:00;;;;;;;;;2.00;2.00;;;;;21.47;100.00;101383.44;5104128;27;45364;-76
2023/05/05 08:49:33;;;;;;;;;3.00;3.00;;;;;21.52;100.00;101388.97;5091009;27;45860;-77
2023/05/05 08:52:01;;;;;;;;;3.67;2.33;;;;;21.66;100.00;101391.44;5088760;27;45387;-76
2023/05/05 08:54:33;;;;;;;;;5.00;4.00;;;;;21.66;100.00;101383.34;5106240;27;45432;-76
2023/05/05 08:57:00;;;;;;;;;2.00;2.00;;;;;21.83;100.00;101394.34;5102123;27;46407;-76
2023/05/05 08:59:29;;;;;;;;;3.00;3.00;;;;;21.96;100.00;101395.97;5078678;27;45580;-76
2023/05/05 09:01:59;;;;;;;;;4.00;4.00;;;;;22.02;100.00;101391.50;5109469;27;45463;-76
2023/05/05 09:04:25;;;;;;;;;1.67;1.33;;;;;22.05;100.00;101401.84;5083701;27;47056;-76
2023/05/05 09:06:51;;;;;;;;;1.67;1.67;;;;;22.00;100.00;101380.91;5089707;27;47503;-76
2023/05/05 09:09:16;;;;;;;;;2.00;2.00;;;;;22.02;100.00;101383.38;5104555;27;45566;-76
2023/05/05 09:11:43;;;;;;;;;2.33;2.33;;;;;21.99;100.00;101381.97;5079608;27;45393;-76
2023/05/05 09:14:09;;;;;;;;;2.00;2.00;;;;;21.92;100.00;101384.00;5080995;27;46587;-76
2023/05/05 09:16:34;;;;;;;;;2.00;2.00;;;;;21.88;100.00;101388.22;5094377;27;47393;-77
2023/05/05 09:19:03;;;;;;;;;1.00;1.00;;;;;21.94;100.00;101398.91;5100748;27;45491;-76
2023/05/05 09:21:29;;;;;;;;;2.00;2.00;;;;;21.91;100.00;101393.16;5100240;27;45428;-77
2023/05/05 09:24:11;;;;;;;;;1.00;1.00;;;;;22.08;100.00;101398.69;5101142;27;46021;-78
2023/05/05 09:26:40;;;;;;;;;2.00;2.00;;;;;22.19;100.00;101405.16;5102067;27;47409;-76
2023/05/05 09:29:05;;;;;;;;;2.00;2.00;;;;;22.21;100.00;101386.81;5117207;27;45420;-76
2023/05/05 09:31:32;;;;;;;;;2.00;2.00;;;;;22.26;100.00;101372.53;5102938;27;45346;-75
2023/05/05 09:33:59;;;;;;;;;2.00;2.00;;;;;22.46;100.00;101383.00;5123769;27;45449;-75
2023/05/05 09:36:41;;;;;;;;;1.00;1.00;;;;;22.52;100.00;101402.88;5123132;27;45356;-74
2023/05/05 09:39:07;;;;;;;;;2.00;2.00;;;;;22.41;100.00;101377.44;5113493;27;45347;-77
2023/05/05 09:41:41;;;;;;;;;2.00;2.00;;;;;22.60;100.00;101388.16;5067290;28;45343;-77
2023/05/05 09:44:07;;;;;;;;;1.33;1.33;;;;;22.66;100.00;101387.22;5062547;28;45381;-76
2023/05/05 09:46:32;;;;;;;;;1.67;1.67;;;;;22.66;99.91;101376.38;5062727;28;45811;-75
2023/05/05 09:49:16;;;;;;;;;0.00;0.00;;;;;22.85;100.00;101398.69;5045017;28;45380;-75
2023/05/05 09:51:42;;;;;;;;;1.00;1.00;;;;;22.90;98.45;101400.69;5081473;28;45482;-74
2023/05/05 09:54:07;;;;;;;;;1.00;1.00;;;;;22.83;97.29;101382.66;5064767;28;45552;-75
2023/05/05 09:56:39;;;;;;;;;1.67;1.67;;;;;23.00;95.72;101391.91;5082750;28;46066;-75
2023/05/05 09:59:09;;;;;;;;;1.00;1.00;;;;;23.17;96.23;101392.75;5082630;28;45441;-75
2023/05/05 10:01:34;;;;;;;;;1.00;1.00;;;;;23.20;96.51;101378.72;5082927;28;45423;-74
2023/05/05 10:04:00;;;;;;;;;1.00;1.00;;;;;23.29;95.12;101378.34;5082697;28;45482;-75
2023/05/05 10:06:47;;;;;;;;;3.00;1.00;;;;;23.27;93.30;101366.91;5079617;28;48079;-77
2023/05/05 10:09:13;;;;;;;;;1.00;1.00;;;;;23.26;95.24;101357.97;5077946;28;45348;-76
2023/05/05 10:11:41;;;;;;;;;1.00;1.00;;;;;23.29;95.40;101360.16;5082225;28;45373;-75
2023/05/05 10:14:07;;;;;;;;;1.00;1.00;;;;;23.32;92.80;101353.44;5082765;28;45606;-76
2023/05/05 10:16:34;;;;;;;;;1.00;0.67;;;;;23.35;93.20;101343.97;5082447;28;45319;-76
2023/05/05 10:19:02;;;;;;;;;1.67;1.67;;;;;23.49;93.34;101366.22;5082488;28;45267;-76
2023/05/05 10:21:34;;;;;;;;;1.33;1.33;;;;;23.53;92.55;101368.19;5082616;28;45422;-79
2023/05/05 10:24:08;;;;;;;;;0.00;0.00;;;;;23.57;91.90;101363.91;5081221;28;46310;-75
2023/05/05 10:26:37;;;;;;;;;1.33;1.33;;;;;23.45;92.55;101336.03;5082247;28;45270;-77
2023/05/05 10:29:10;;;;;;;;;0.00;0.00;;;;;23.65;93.23;101349.13;5082360;28;45365;-76
2023/05/05 10:31:48;;;;;;;;;0.33;0.33;;;;;23.82;92.33;101356.38;5064236;28;45281;-74
2023/05/05 10:34:24;;;;;;;;;1.00;1.00;;;;;23.99;94.51;101356.38;5082054;28;45327;-76
2023/05/05 10:36:50;;;;;;;;;1.00;1.00;;;;;24.08;92.67;101345.91;5063750;28;47823;-75
2023/05/05 10:39:18;;;;;;;;;0.00;0.00;;;;;24.19;91.42;101336.81;5079550;27;45508;-74
2023/05/05 10:41:45;;;;;;;;;1.00;1.00;;;;;24.34;91.17;101341.63;5072425;28;45354;-75
2023/05/05 10:44:12;;;;;;;;;0.00;0.00;;;;;24.48;92.45;101330.38;5061855;28;45376;-76
2023/05/05 10:46:38;;;;;;;;;1.00;1.00;;;;;24.67;89.94;101330.88;5059084;28;45360;-76
2023/05/05 10:49:13;;;;;;;;;0.00;0.00;;;;;24.79;90.99;101321.75;5066731;28;45424;-74
2023/05/05 10:51:38;;;;;;;;;1.00;1.00;;;;;25.00;88.83;101333.69;5061825;28;45332;-74
2023/05/05 10:54:41;;;;;;;;;0.00;0.00;;;;;25.16;85.38;101325.63;5043470;28;46145;-75
2023/05/05 10:57:10;;;;;;;;;0.00;0.00;;;;;25.38;86.67;101324.72;5046478;28;47154;-75
2023/05/05 10:59:35;;;;;;;;;0.00;0.00;;;;;25.54;87.98;101318.31;5042267;28;45369;-75
2023/05/05 11:02:16;;;;;;;;;1.00;1.00;;;;;25.75;89.83;101317.66;5060445;28;45682;-75
2023/05/05 11:04:41;;;;;;;;;0.00;0.00;;;;;25.97;86.93;101318.31;5076570;27;45493;-76
2023/05/05 11:07:06;;;;;;;;;0.25;0.00;;;;;26.17;86.39;101321.38;5080714;27;45559;-75
2023/05/05 11:09:35;;;;;;;;;0.00;0.00;;;;;26.21;83.15;101298.81;5079798;27;45560;-75
2023/05/05 11:12:03;;;;;;;;;0.00;0.00;;;;;26.38;81.00;101299.69;5071936;27;45456;-75
2023/05/05 11:14:28;;;;;;;;;0.33;0.33;;;;;26.45;80.71;101294.81;5090228;27;45468;-76
2023/05/05 11:16:54;;;;;;;;;0.00;0.00;;;;;26.66;78.66;101289.41;5079942;27;48245;-74
2023/05/05 11:19:41;;;;;;;;;0.00;0.00;;;;;26.88;76.25;101291.88;5085336;27;45439;-74
2023/05/05 11:22:07;;;;;;;;;0.00;0.00;;;;;27.05;77.30;101293.53;5062626;27;45624;-75
2023/05/05 11:24:32;;;;;;;;;2.00;2.00;;;;;27.21;72.31;101291.63;5069218;27;46181;-75